Terminal Aerodrome Forecast
Issued by NWS

Home | Current Version | Previous Version | Text Only | Print | Product List | Glossary Off
Versions: 1 2 3 4 5 6 7 8 9 10 11 12 13 14 15 16 17 18

000
FTUS43 KICT 161724
TAFCNU
TAF
KCNU 161724Z 1618/1718 20018G22KT P6SM SKC
     FM162200 17010KT P6SM BKN130
     FM170600 17009KT P6SM VCSH BKN080
     FM170900 18008KT 4SM -RA BR OVC015
     FM171400 18008KT 5SM -RA BR OVC010
     FM171700 21007KT P6SM OVC020=

USA.gov is the U.S. government's official web portal to all federal, state and local government web resources and services.